sensor_id;sensor_type;location;lat;lon;timestamp;pressure;altitude;pressure_sealevel;temperature;humidity
77574;BME280;66710;48.868;9.080;2023-03-24T00:02:19;97134.56;;;12.16;68.92
77574;BME280;66710;48.868;9.080;2023-03-24T00:04:47;97126.59;;;12.05;69.89
77574;BME280;66710;48.868;9.080;2023-03-24T00:07:15;97120.13;;;12.01;69.95
77574;BME280;66710;48.868;9.080;2023-03-24T00:09:42;97123.44;;;12.12;68.38
77574;BME280;66710;48.868;9.080;2023-03-24T00:12:12;97121.84;;;12.25;67.80
77574;BME280;66710;48.868;9.080;2023-03-24T00:14:39;97125.34;;;12.39;67.02
77574;BME280;66710;48.868;9.080;2023-03-24T00:17:06;97119.41;;;12.37;67.49
77574;BME280;66710;48.868;9.080;2023-03-24T00:19:36;97118.75;;;12.40;66.93
77574;BME280;66710;48.868;9.080;2023-03-24T00:22:03;97123.50;;;12.48;66.83
77574;BME280;66710;48.868;9.080;2023-03-24T00:24:29;97116.69;;;12.60;65.96
77574;BME280;66710;48.868;9.080;2023-03-24T00:26:54;97108.00;;;12.58;65.86
77574;BME280;66710;48.868;9.080;2023-03-24T00:29:22;97095.66;;;12.60;65.67
77574;BME280;66710;48.868;9.080;2023-03-24T00:31:47;97095.47;;;12.57;66.19
77574;BME280;66710;48.868;9.080;2023-03-24T00:34:12;97099.28;;;12.69;65.62
77574;BME280;66710;48.868;9.080;2023-03-24T00:36:38;97095.22;;;12.67;65.61
77574;BME280;66710;48.868;9.080;2023-03-24T00:39:04;97089.31;;;12.74;65.00
77574;BME280;66710;48.868;9.080;2023-03-24T00:41:30;97086.78;;;12.77;64.93
77574;BME280;66710;48.868;9.080;2023-03-24T00:43:57;97084.69;;;12.74;64.91
77574;BME280;66710;48.868;9.080;2023-03-24T00:46:24;97079.25;;;12.83;64.01
77574;BME280;66710;48.868;9.080;2023-03-24T00:48:59;97076.66;;;13.00;62.95
77574;BME280;66710;48.868;9.080;2023-03-24T00:51:29;97068.56;;;12.95;63.16
77574;BME280;66710;48.868;9.080;2023-03-24T00:53:55;97073.69;;;13.11;62.24
77574;BME280;66710;48.868;9.080;2023-03-24T00:56:25;97064.06;;;13.13;61.95
77574;BME280;66710;48.868;9.080;2023-03-24T00:58:51;97059.03;;;13.06;62.06
77574;BME280;66710;48.868;9.080;2023-03-24T01:01:18;97056.03;;;13.17;61.59
77574;BME280;66710;48.868;9.080;2023-03-24T01:03:46;97056.28;;;13.06;62.06
77574;BME280;66710;48.868;9.080;2023-03-24T01:06:12;97053.84;;;13.05;62.02
77574;BME280;66710;48.868;9.080;2023-03-24T01:08:37;97052.31;;;12.90;63.37
77574;BME280;66710;48.868;9.080;2023-03-24T01:11:04;97043.31;;;12.89;63.74
77574;BME280;66710;48.868;9.080;2023-03-24T01:13:30;97035.94;;;12.90;63.31
77574;BME280;66710;48.868;9.080;2023-03-24T01:15:56;97022.75;;;12.92;62.73
77574;BME280;66710;48.868;9.080;2023-03-24T01:18:22;97020.38;;;12.99;62.46
77574;BME280;66710;48.868;9.080;2023-03-24T01:20:52;97017.16;;;12.97;62.72
77574;BME280;66710;48.868;9.080;2023-03-24T01:23:21;97018.38;;;12.91;62.84
77574;BME280;66710;48.868;9.080;2023-03-24T01:25:48;97008.19;;;12.83;63.73
77574;BME280;66710;48.868;9.080;2023-03-24T01:28:16;97016.81;;;12.99;62.38
77574;BME280;66710;48.868;9.080;2023-03-24T01:30:43;97017.94;;;12.98;62.18
77574;BME280;66710;48.868;9.080;2023-03-24T01:33:09;97012.91;;;12.91;62.46
77574;BME280;66710;48.868;9.080;2023-03-24T01:35:35;97006.22;;;12.97;62.31
77574;BME280;66710;48.868;9.080;2023-03-24T01:38:04;97003.47;;;12.97;61.86
77574;BME280;66710;48.868;9.080;2023-03-24T01:40:31;97009.38;;;12.90;62.39
77574;BME280;66710;48.868;9.080;2023-03-24T01:42:57;97001.69;;;12.93;62.35
77574;BME280;66710;48.868;9.080;2023-03-24T01:48:43;96988.97;;;12.97;62.17
77574;BME280;66710;48.868;9.080;2023-03-24T01:51:26;96985.81;;;13.03;62.16
77574;BME280;66710;48.868;9.080;2023-03-24T01:53:57;96987.44;;;13.04;61.89
77574;BME280;66710;48.868;9.080;2023-03-24T01:56:24;96980.75;;;13.19;60.95
77574;BME280;66710;48.868;9.080;2023-03-24T01:58:57;96976.22;;;13.15;61.03
77574;BME280;66710;48.868;9.080;2023-03-24T02:01:23;96980.13;;;13.22;60.91
77574;BME280;66710;48.868;9.080;2023-03-24T02:03:54;96983.34;;;13.24;60.87
77574;BME280;66710;48.868;9.080;2023-03-24T02:06:21;96979.16;;;13.27;60.73
77574;BME280;66710;48.868;9.080;2023-03-24T02:08:51;96976.91;;;13.20;61.32
77574;BME280;66710;48.868;9.080;2023-03-24T02:11:20;96971.13;;;13.22;60.95
77574;BME280;66710;48.868;9.080;2023-03-24T02:13:46;96973.44;;;13.37;60.48
77574;BME280;66710;48.868;9.080;2023-03-24T02:22:19;96978.47;;;13.44;60.10
77574;BME280;66710;48.868;9.080;2023-03-24T02:25:10;96971.56;;;13.55;59.46
77574;BME280;66710;48.868;9.080;2023-03-24T02:27:47;96963.00;;;13.48;59.79
77574;BME280;66710;48.868;9.080;2023-03-24T02:34:15;96967.06;;;13.51;59.25
77574;BME280;66710;48.868;9.080;2023-03-24T02:36:55;96966.72;;;13.43;59.41
77574;BME280;66710;48.868;9.080;2023-03-24T02:39:35;96963.19;;;13.52;59.17
77574;BME280;66710;48.868;9.080;2023-03-24T02:42:10;96968.13;;;13.41;59.44
77574;BME280;66710;48.868;9.080;2023-03-24T02:51:03;96964.94;;;13.48;59.13
77574;BME280;66710;48.868;9.080;2023-03-24T02:53:17;96963.63;;;13.36;59.42
77574;BME280;66710;48.868;9.080;2023-03-24T02:55:52;96966.59;;;13.57;58.64
77574;BME280;66710;48.868;9.080;2023-03-24T02:58:46;96951.25;;;13.48;58.82
77574;BME280;66710;48.868;9.080;2023-03-24T03:01:40;96969.75;;;13.42;59.63
77574;BME280;66710;48.868;9.080;2023-03-24T03:04:14;96949.00;;;13.50;58.97
77574;BME280;66710;48.868;9.080;2023-03-24T03:06:44;96957.69;;;13.52;58.70
77574;BME280;66710;48.868;9.080;2023-03-24T03:09:15;96948.84;;;13.46;59.35
77574;BME280;66710;48.868;9.080;2023-03-24T03:11:46;96944.50;;;13.45;59.50
77574;BME280;66710;48.868;9.080;2023-03-24T03:14:17;96940.63;;;13.46;59.66
77574;BME280;66710;48.868;9.080;2023-03-24T03:16:50;96944.81;;;13.43;59.61
77574;BME280;66710;48.868;9.080;2023-03-24T03:19:24;96945.72;;;13.30;60.02
77574;BME280;66710;48.868;9.080;2023-03-24T03:21:53;96942.41;;;13.42;59.64
77574;BME280;66710;48.868;9.080;2023-03-24T03:24:25;96931.91;;;13.35;59.96
77574;BME280;66710;48.868;9.080;2023-03-24T03:26:55;96925.16;;;13.33;60.16
77574;BME280;66710;48.868;9.080;2023-03-24T03:29:25;96917.38;;;13.26;60.41
77574;BME280;66710;48.868;9.080;2023-03-24T03:31:54;96916.91;;;13.24;60.39
77574;BME280;66710;48.868;9.080;2023-03-24T03:37:19;96923.75;;;13.13;61.19
77574;BME280;66710;48.868;9.080;2023-03-24T03:40:03;96922.13;;;13.03;61.96
77574;BME280;66710;48.868;9.080;2023-03-24T03:42:30;96931.09;;;12.95;62.01
77574;BME280;66710;48.868;9.080;2023-03-24T03:44:55;96927.69;;;12.89;62.68
77574;BME280;66710;48.868;9.080;2023-03-24T03:47:21;96931.41;;;12.93;62.47
77574;BME280;66710;48.868;9.080;2023-03-24T03:49:47;96934.00;;;12.98;62.29
77574;BME280;66710;48.868;9.080;2023-03-24T03:52:14;96925.16;;;13.01;62.06
77574;BME280;66710;48.868;9.080;2023-03-24T03:54:41;96931.94;;;13.04;61.79
77574;BME280;66710;48.868;9.080;2023-03-24T03:57:08;96930.69;;;13.10;61.16
77574;BME280;66710;48.868;9.080;2023-03-24T03:59:36;96937.28;;;13.18;60.94
77574;BME280;66710;48.868;9.080;2023-03-24T04:02:22;96940.19;;;13.21;60.44
77574;BME280;66710;48.868;9.080;2023-03-24T04:05:01;96937.78;;;13.20;60.32
77574;BME280;66710;48.868;9.080;2023-03-24T04:10:39;96934.88;;;13.16;60.34
77574;BME280;66710;48.868;9.080;2023-03-24T04:18:24;96939.22;;;13.17;60.74
77574;BME280;66710;48.868;9.080;2023-03-24T04:23:47;96928.44;;;13.12;60.83
77574;BME280;66710;48.868;9.080;2023-03-24T04:26:26;96929.75;;;13.15;60.45
77574;BME280;66710;48.868;9.080;2023-03-24T04:31:35;96923.00;;;13.21;60.11
77574;BME280;66710;48.868;9.080;2023-03-24T04:34:15;96925.06;;;13.15;60.86
77574;BME280;66710;48.868;9.080;2023-03-24T04:36:52;96921.06;;;13.21;60.07
77574;BME280;66710;48.868;9.080;2023-03-24T04:39:22;96915.44;;;13.26;59.75
77574;BME280;66710;48.868;9.080;2023-03-24T04:41:50;96932.66;;;13.18;60.34
77574;BME280;66710;48.868;9.080;2023-03-24T04:44:17;96924.94;;;13.20;60.31
77574;BME280;66710;48.868;9.080;2023-03-24T04:46:46;96938.25;;;13.13;61.18
77574;BME280;66710;48.868;9.080;2023-03-24T04:49:11;96926.34;;;13.18;60.94
77574;BME280;66710;48.868;9.080;2023-03-24T04:51:37;96930.09;;;13.22;60.92
77574;BME280;66710;48.868;9.080;2023-03-24T04:54:02;96932.66;;;13.18;60.99
77574;BME280;66710;48.868;9.080;2023-03-24T04:59:04;96943.41;;;13.23;60.94
77574;BME280;66710;48.868;9.080;2023-03-24T05:01:31;96943.09;;;13.25;60.75
77574;BME280;66710;48.868;9.080;2023-03-24T05:04:01;96958.09;;;13.27;60.66
77574;BME280;66710;48.868;9.080;2023-03-24T05:06:28;96974.34;;;13.24;61.41
77574;BME280;66710;48.868;9.080;2023-03-24T05:08:53;96989.91;;;13.23;61.21
77574;BME280;66710;48.868;9.080;2023-03-24T05:11:21;97011.63;;;13.20;62.13
77574;BME280;66710;48.868;9.080;2023-03-24T05:13:46;97034.09;;;13.08;63.25
77574;BME280;66710;48.868;9.080;2023-03-24T05:16:12;97047.09;;;13.02;63.78
77574;BME280;66710;48.868;9.080;2023-03-24T05:18:37;97062.06;;;12.82;65.68
77574;BME280;66710;48.868;9.080;2023-03-24T05:21:03;97066.84;;;12.77;66.62
77574;BME280;66710;48.868;9.080;2023-03-24T05:23:28;97084.44;;;12.62;67.89
77574;BME280;66710;48.868;9.080;2023-03-24T05:25:53;97074.25;;;12.40;70.06
77574;BME280;66710;48.868;9.080;2023-03-24T05:28:18;97066.78;;;12.31;71.22
77574;BME280;66710;48.868;9.080;2023-03-24T05:30:44;97069.53;;;12.18;72.21
77574;BME280;66710;48.868;9.080;2023-03-24T05:33:09;97071.19;;;12.05;73.31
77574;BME280;66710;48.868;9.080;2023-03-24T05:35:35;97062.19;;;11.90;74.67
77574;BME280;66710;48.868;9.080;2023-03-24T05:38:00;97059.53;;;11.85;74.69
77574;BME280;66710;48.868;9.080;2023-03-24T05:40:25;97057.00;;;11.75;76.77
77574;BME280;66710;48.868;9.080;2023-03-24T05:42:50;97059.66;;;11.66;77.04
77574;BME280;66710;48.868;9.080;2023-03-24T05:45:16;97071.09;;;11.68;76.44
77574;BME280;66710;48.868;9.080;2023-03-24T05:47:41;97071.69;;;11.65;77.43
77574;BME280;66710;48.868;9.080;2023-03-24T05:50:07;97077.13;;;11.65;77.69
77574;BME280;66710;48.868;9.080;2023-03-24T05:52:33;97076.72;;;11.58;77.92
77574;BME280;66710;48.868;9.080;2023-03-24T05:54:59;97079.16;;;11.60;78.50
77574;BME280;66710;48.868;9.080;2023-03-24T05:57:24;97078.63;;;11.57;78.40
77574;BME280;66710;48.868;9.080;2023-03-24T05:59:49;97081.28;;;11.49;79.14
77574;BME280;66710;48.868;9.080;2023-03-24T06:02:16;97075.91;;;11.44;79.84
77574;BME280;66710;48.868;9.080;2023-03-24T06:04:41;97085.09;;;11.48;78.70
77574;BME280;66710;48.868;9.080;2023-03-24T06:07:11;97081.56;;;11.47;78.99
77574;BME280;66710;48.868;9.080;2023-03-24T06:09:36;97080.72;;;11.33;79.32
77574;BME280;66710;48.868;9.080;2023-03-24T06:12:03;97090.13;;;11.27;80.13
77574;BME280;66710;48.868;9.080;2023-03-24T06:14:28;97078.72;;;11.25;79.78
77574;BME280;66710;48.868;9.080;2023-03-24T06:16:54;97071.72;;;11.18;80.39
77574;BME280;66710;48.868;9.080;2023-03-24T06:19:24;97069.59;;;11.15;80.86
77574;BME280;66710;48.868;9.080;2023-03-24T06:21:49;97067.75;;;11.11;81.19
77574;BME280;66710;48.868;9.080;2023-03-24T06:24:16;97065.34;;;11.09;81.40
77574;BME280;66710;48.868;9.080;2023-03-24T06:26:42;97059.50;;;11.16;80.51
77574;BME280;66710;48.868;9.080;2023-03-24T06:29:09;97050.00;;;11.27;79.46
77574;BME280;66710;48.868;9.080;2023-03-24T06:31:34;97052.25;;;11.39;80.37
77574;BME280;66710;48.868;9.080;2023-03-24T06:34:02;97053.56;;;11.42;79.22
77574;BME280;66710;48.868;9.080;2023-03-24T06:36:27;97055.59;;;11.50;78.34
77574;BME280;66710;48.868;9.080;2023-03-24T06:38:53;97052.47;;;11.56;78.14
77574;BME280;66710;48.868;9.080;2023-03-24T06:41:18;97057.63;;;11.58;78.94
77574;BME280;66710;48.868;9.080;2023-03-24T06:43:44;97064.91;;;11.63;78.98
77574;BME280;66710;48.868;9.080;2023-03-24T06:46:09;97068.34;;;11.68;78.91
77574;BME280;66710;48.868;9.080;2023-03-24T06:48:35;97068.97;;;11.65;79.88
77574;BME280;66710;48.868;9.080;2023-03-24T06:51:00;97069.16;;;11.69;79.69
77574;BME280;66710;48.868;9.080;2023-03-24T06:53:26;97070.84;;;11.79;79.22
77574;BME280;66710;48.868;9.080;2023-03-24T06:55:51;97074.19;;;11.89;79.53
77574;BME280;66710;48.868;9.080;2023-03-24T06:58:17;97076.25;;;11.98;79.18
77574;BME280;66710;48.868;9.080;2023-03-24T07:00:43;97075.66;;;12.01;79.35
77574;BME280;66710;48.868;9.080;2023-03-24T07:03:10;97077.47;;;12.05;79.29
77574;BME280;66710;48.868;9.080;2023-03-24T07:05:40;97083.63;;;12.11;78.99
77574;BME280;66710;48.868;9.080;2023-03-24T07:08:06;97085.03;;;12.08;79.75
77574;BME280;66710;48.868;9.080;2023-03-24T07:10:35;97090.50;;;12.08;79.45
77574;BME280;66710;48.868;9.080;2023-03-24T07:13:00;97100.69;;;12.17;78.70
77574;BME280;66710;48.868;9.080;2023-03-24T07:15:27;97095.34;;;12.11;79.22
77574;BME280;66710;48.868;9.080;2023-03-24T07:17:53;97090.38;;;12.13;79.39
77574;BME280;66710;48.868;9.080;2023-03-24T07:20:18;97100.41;;;12.04;80.04
77574;BME280;66710;48.868;9.080;2023-03-24T07:22:44;97093.41;;;12.12;79.50
77574;BME280;66710;48.868;9.080;2023-03-24T07:25:09;97099.41;;;12.00;80.21
77574;BME280;66710;48.868;9.080;2023-03-24T07:27:34;97108.09;;;12.02;80.44
77574;BME280;66710;48.868;9.080;2023-03-24T07:30:02;97109.00;;;11.98;80.64
77574;BME280;66710;48.868;9.080;2023-03-24T07:32:30;97116.50;;;11.92;80.84
77574;BME280;66710;48.868;9.080;2023-03-24T07:34:59;97125.69;;;11.96;81.45
77574;BME280;66710;48.868;9.080;2023-03-24T07:37:25;97118.19;;;11.88;82.42
77574;BME280;66710;48.868;9.080;2023-03-24T07:39:50;97111.19;;;11.82;82.62
77574;BME280;66710;48.868;9.080;2023-03-24T07:42:15;97130.38;;;11.76;82.97
77574;BME280;66710;48.868;9.080;2023-03-24T07:44:41;97124.94;;;11.76;83.29
77574;BME280;66710;48.868;9.080;2023-03-24T07:47:06;97125.22;;;11.75;83.32
77574;BME280;66710;48.868;9.080;2023-03-24T07:49:31;97129.88;;;11.74;83.76
77574;BME280;66710;48.868;9.080;2023-03-24T07:51:57;97129.09;;;11.74;84.44
77574;BME280;66710;48.868;9.080;2023-03-24T07:54:23;97132.72;;;11.69;84.87
77574;BME280;66710;48.868;9.080;2023-03-24T07:56:49;97131.31;;;11.72;85.15
77574;BME280;66710;48.868;9.080;2023-03-24T07:59:14;97131.81;;;11.74;84.59
77574;BME280;66710;48.868;9.080;2023-03-24T08:01:41;97138.38;;;11.73;84.71
77574;BME280;66710;48.868;9.080;2023-03-24T08:04:11;97134.53;;;11.74;85.05
77574;BME280;66710;48.868;9.080;2023-03-24T08:06:37;97138.28;;;11.78;84.10
77574;BME280;66710;48.868;9.080;2023-03-24T08:09:02;97147.69;;;11.72;85.43
77574;BME280;66710;48.868;9.080;2023-03-24T08:11:28;97148.19;;;11.74;84.92
77574;BME280;66710;48.868;9.080;2023-03-24T08:13:53;97142.22;;;11.72;85.10
77574;BME280;66710;48.868;9.080;2023-03-24T08:16:19;97134.84;;;11.72;85.15
77574;BME280;66710;48.868;9.080;2023-03-24T08:18:45;97105.94;;;11.71;85.27
77574;BME280;66710;48.868;9.080;2023-03-24T08:21:12;97087.88;;;11.75;85.49
77574;BME280;66710;48.868;9.080;2023-03-24T08:23:38;97049.34;;;11.77;85.56
77574;BME280;66710;48.868;9.080;2023-03-24T08:26:03;97062.06;;;11.82;84.74
77574;BME280;66710;48.868;9.080;2023-03-24T08:28:29;97058.16;;;11.88;84.32
77574;BME280;66710;48.868;9.080;2023-03-24T08:30:54;97029.66;;;11.94;84.75
77574;BME280;66710;48.868;9.080;2023-03-24T08:33:19;96989.69;;;11.98;83.38
77574;BME280;66710;48.868;9.080;2023-03-24T08:35:45;96968.56;;;12.04;82.42
77574;BME280;66710;48.868;9.080;2023-03-24T08:38:11;97027.09;;;12.11;81.92
77574;BME280;66710;48.868;9.080;2023-03-24T08:40:38;97037.09;;;12.16;82.64
77574;BME280;66710;48.868;9.080;2023-03-24T08:43:06;97029.00;;;12.25;81.26
77574;BME280;66710;48.868;9.080;2023-03-24T08:45:35;97051.84;;;12.29;81.03
77574;BME280;66710;48.868;9.080;2023-03-24T08:48:03;97059.41;;;12.32;81.20
77574;BME280;66710;48.868;9.080;2023-03-24T08:50:32;97076.50;;;12.38;81.19
77574;BME280;66710;48.868;9.080;2023-03-24T08:52:59;97082.94;;;12.42;80.81
77574;BME280;66710;48.868;9.080;2023-03-24T08:55:24;97087.00;;;12.44;80.86
77574;BME280;66710;48.868;9.080;2023-03-24T08:57:50;97099.91;;;12.52;80.73
77574;BME280;66710;48.868;9.080;2023-03-24T09:00:18;97099.09;;;12.66;79.72
77574;BME280;66710;48.868;9.080;2023-03-24T09:02:45;97112.56;;;12.62;80.50
77574;BME280;66710;48.868;9.080;2023-03-24T09:05:11;97103.56;;;12.62;79.81
77574;BME280;66710;48.868;9.080;2023-03-24T09:07:36;97105.84;;;12.68;79.41
77574;BME280;66710;48.868;9.080;2023-03-24T09:10:06;97093.06;;;12.78;80.08
77574;BME280;66710;48.868;9.080;2023-03-24T09:12:32;97104.81;;;12.78;79.89
77574;BME280;66710;48.868;9.080;2023-03-24T09:14:57;97105.22;;;12.71;79.90
77574;BME280;66710;48.868;9.080;2023-03-24T09:17:22;97090.88;;;12.66;79.77
77574;BME280;66710;48.868;9.080;2023-03-24T09:19:47;97098.28;;;12.65;79.50
77574;BME280;66710;48.868;9.080;2023-03-24T09:22:13;97100.69;;;12.67;80.01
77574;BME280;66710;48.868;9.080;2023-03-24T09:24:39;97096.22;;;12.71;79.17
77574;BME280;66710;48.868;9.080;2023-03-24T09:27:04;97099.16;;;12.75;80.00
77574;BME280;66710;48.868;9.080;2023-03-24T09:29:29;97097.47;;;12.87;78.96
77574;BME280;66710;48.868;9.080;2023-03-24T09:31:55;97106.06;;;12.95;78.76
77574;BME280;66710;48.868;9.080;2023-03-24T09:34:22;97101.97;;;13.06;77.60
77574;BME280;66710;48.868;9.080;2023-03-24T09:36:48;97094.19;;;13.22;77.25
77574;BME280;66710;48.868;9.080;2023-03-24T09:39:13;97084.00;;;13.36;76.52
77574;BME280;66710;48.868;9.080;2023-03-24T09:41:39;97101.56;;;13.44;77.07
77574;BME280;66710;48.868;9.080;2023-03-24T09:44:14;97096.72;;;13.41;75.90
77574;BME280;66710;48.868;9.080;2023-03-24T09:47:11;97101.44;;;13.49;74.69
77574;BME280;66710;48.868;9.080;2023-03-24T09:49:41;97087.09;;;13.75;73.66
77574;BME280;66710;48.868;9.080;2023-03-24T09:52:12;97076.25;;;13.61;73.09
77574;BME280;66710;48.868;9.080;2023-03-24T09:54:51;97102.13;;;13.95;72.46
77574;BME280;66710;48.868;9.080;2023-03-24T09:57:33;97105.78;;;14.30;71.78
77574;BME280;66710;48.868;9.080;2023-03-24T10:00:08;97093.72;;;14.57;70.63
77574;BME280;66710;48.868;9.080;2023-03-24T10:02:40;97091.28;;;14.30;69.02
77574;BME280;66710;48.868;9.080;2023-03-24T10:05:12;97091.16;;;14.96;68.77
77574;BME280;66710;48.868;9.080;2023-03-24T10:10:21;97088.56;;;14.47;69.44
77574;BME280;66710;48.868;9.080;2023-03-24T10:12:48;97095.84;;;14.78;68.92
77574;BME280;66710;48.868;9.080;2023-03-24T10:15:44;97101.19;;;14.83;67.43
77574;BME280;66710;48.868;9.080;2023-03-24T10:19:02;97103.59;;;14.58;68.04
77574;BME280;66710;48.868;9.080;2023-03-24T10:21:21;97104.72;;;14.75;67.60
77574;BME280;66710;48.868;9.080;2023-03-24T10:23:56;97098.75;;;14.64;66.78
77574;BME280;66710;48.868;9.080;2023-03-24T10:26:44;97104.09;;;14.87;67.18
77574;BME280;66710;48.868;9.080;2023-03-24T10:29:24;97104.56;;;14.63;67.29
77574;BME280;66710;48.868;9.080;2023-03-24T10:32:17;97104.56;;;14.71;67.70
77574;BME280;66710;48.868;9.080;2023-03-24T10:34:47;97101.97;;;14.84;67.61
77574;BME280;66710;48.868;9.080;2023-03-24T10:37:14;97097.31;;;14.75;67.16
77574;BME280;66710;48.868;9.080;2023-03-24T10:39:41;97100.22;;;14.79;67.07
77574;BME280;66710;48.868;9.080;2023-03-24T10:42:12;97105.19;;;14.77;67.08
77574;BME280;66710;48.868;9.080;2023-03-24T10:44:39;97102.28;;;14.73;65.99
77574;BME280;66710;48.868;9.080;2023-03-24T10:47:05;97099.06;;;14.71;66.19
77574;BME280;66710;48.868;9.080;2023-03-24T10:49:32;97120.38;;;14.66;66.85
77574;BME280;66710;48.868;9.080;2023-03-24T10:52:02;97156.16;;;14.69;65.87
77574;BME280;66710;48.868;9.080;2023-03-24T10:54:32;97117.78;;;14.60;66.64
77574;BME280;66710;48.868;9.080;2023-03-24T10:59:39;97141.66;;;14.60;65.46
77574;BME280;66710;48.868;9.080;2023-03-24T11:02:17;97126.34;;;14.76;66.82
77574;BME280;66710;48.868;9.080;2023-03-24T11:05:11;97136.69;;;14.97;65.46
77574;BME280;66710;48.868;9.080;2023-03-24T11:07:48;97134.38;;;15.43;64.11
77574;BME280;66710;48.868;9.080;2023-03-24T11:10:16;97138.88;;;15.39;63.41
77574;BME280;66710;48.868;9.080;2023-03-24T11:15:21;97120.38;;;15.27;64.23
77574;BME280;66710;48.868;9.080;2023-03-24T11:17:54;97112.47;;;14.99;64.46
77574;BME280;66710;48.868;9.080;2023-03-24T11:20:31;97127.63;;;15.14;64.55
77574;BME280;66710;48.868;9.080;2023-03-24T11:25:40;97126.19;;;15.08;63.34
77574;BME280;66710;48.868;9.080;2023-03-24T11:28:08;97139.72;;;15.30;61.63
77574;BME280;66710;48.868;9.080;2023-03-24T11:30:52;97140.69;;;15.34;62.74
77574;BME280;66710;48.868;9.080;2023-03-24T11:33:27;97144.38;;;15.39;62.25
77574;BME280;66710;48.868;9.080;2023-03-24T11:35:53;97149.91;;;15.12;62.88
77574;BME280;66710;48.868;9.080;2023-03-24T11:38:31;97149.25;;;14.89;63.46
77574;BME280;66710;48.868;9.080;2023-03-24T11:40:58;97152.16;;;14.67;64.14
77574;BME280;66710;48.868;9.080;2023-03-24T11:43:26;97146.75;;;14.44;66.97
77574;BME280;66710;48.868;9.080;2023-03-24T11:46:07;97148.50;;;14.31;66.91
77574;BME280;66710;48.868;9.080;2023-03-24T11:48:41;97161.38;;;14.31;65.56
77574;BME280;66710;48.868;9.080;2023-03-24T11:51:24;97136.03;;;14.16;66.54
77574;BME280;66710;48.868;9.080;2023-03-24T11:53:52;97147.75;;;14.08;68.18
77574;BME280;66710;48.868;9.080;2023-03-24T11:59:40;97150.88;;;14.15;67.93
77574;BME280;66710;48.868;9.080;2023-03-24T12:02:32;97146.44;;;13.97;69.98
77574;BME280;66710;48.868;9.080;2023-03-24T12:05:33;97148.06;;;13.98;70.07
77574;BME280;66710;48.868;9.080;2023-03-24T12:08:25;97150.19;;;14.10;69.14
77574;BME280;66710;48.868;9.080;2023-03-24T12:11:10;97152.13;;;14.09;68.27
77574;BME280;66710;48.868;9.080;2023-03-24T12:13:40;97158.28;;;14.23;66.88
77574;BME280;66710;48.868;9.080;2023-03-24T12:21:59;97139.81;;;14.47;65.17
77574;BME280;66710;48.868;9.080;2023-03-24T12:30:12;97135.47;;;14.46;65.35
77574;BME280;66710;48.868;9.080;2023-03-24T12:32:49;97132.84;;;14.32;65.52
77574;BME280;66710;48.868;9.080;2023-03-24T12:38:24;97146.25;;;14.33;64.88
77574;BME280;66710;48.868;9.080;2023-03-24T12:41:23;97137.72;;;14.35;65.14
77574;BME280;66710;48.868;9.080;2023-03-24T12:49:43;97146.38;;;14.28;64.12
77574;BME280;66710;48.868;9.080;2023-03-24T12:55:00;97141.47;;;14.08;62.40
77574;BME280;66710;48.868;9.080;2023-03-24T12:57:31;97135.53;;;14.14;62.87
77574;BME280;66710;48.868;9.080;2023-03-24T13:00:02;97130.53;;;14.08;63.08
77574;BME280;66710;48.868;9.080;2023-03-24T13:02:53;97134.44;;;14.15;62.74
77574;BME280;66710;48.868;9.080;2023-03-24T13:05:27;97125.03;;;14.08;62.77
77574;BME280;66710;48.868;9.080;2023-03-24T13:07:58;97134.88;;;14.09;63.00
77574;BME280;66710;48.868;9.080;2023-03-24T13:10:28;97148.09;;;14.07;62.89
77574;BME280;66710;48.868;9.080;2023-03-24T13:12:58;97162.69;;;13.17;67.24
77574;BME280;66710;48.868;9.080;2023-03-24T13:15:40;97170.03;;;12.57;69.53
77574;BME280;66710;48.868;9.080;2023-03-24T13:23:34;97157.03;;;11.52;73.49
77574;BME280;66710;48.868;9.080;2023-03-24T13:26:14;97181.72;;;11.28;74.71
77574;BME280;66710;48.868;9.080;2023-03-24T13:31:55;97181.06;;;11.17;76.00
77574;BME280;66710;48.868;9.080;2023-03-24T13:37:03;97183.44;;;10.86;78.68
77574;BME280;66710;48.868;9.080;2023-03-24T13:39:30;97186.31;;;10.94;79.21
77574;BME280;66710;48.868;9.080;2023-03-24T13:41:59;97189.34;;;10.93;78.63
77574;BME280;66710;48.868;9.080;2023-03-24T13:49:32;97177.28;;;10.80;77.76
77574;BME280;66710;48.868;9.080;2023-03-24T13:52:02;97183.31;;;10.77;77.95
77574;BME280;66710;48.868;9.080;2023-03-24T13:54:28;97185.81;;;10.73;77.91
77574;BME280;66710;48.868;9.080;2023-03-24T13:59:41;97189.16;;;10.65;79.39
77574;BME280;66710;48.868;9.080;2023-03-24T14:02:38;97191.16;;;10.59;80.17
77574;BME280;66710;48.868;9.080;2023-03-24T14:05:11;97199.84;;;10.61;79.56
77574;BME280;66710;48.868;9.080;2023-03-24T14:11:03;62632.25;;;-147.94;100.00
77574;BME280;66710;48.868;9.080;2023-03-24T14:13:36;62632.25;;;-147.94;100.00
77574;BME280;66710;48.868;9.080;2023-03-24T14:21:42;62632.25;;;-147.94;100.00
77574;BME280;66710;48.868;9.080;2023-03-24T14:24:34;62632.25;;;-147.94;100.00
77574;BME280;66710;48.868;9.080;2023-03-24T14:27:20;62632.25;;;-147.94;100.00
77574;BME280;66710;48.868;9.080;2023-03-24T14:29:49;62632.25;;;-147.94;100.00
77574;BME280;66710;48.868;9.080;2023-03-24T14:32:17;62632.25;;;-147.94;100.00
77574;BME280;66710;48.868;9.080;2023-03-24T14:34:55;62632.25;;;-147.94;100.00
77574;BME280;66710;48.868;9.080;2023-03-24T14:37:22;62632.25;;;-147.94;100.00
77574;BME280;66710;48.868;9.080;2023-03-24T14:39:49;62632.25;;;-147.94;100.00
77574;BME280;66710;48.868;9.080;2023-03-24T14:47:57;62632.25;;;-147.94;100.00
77574;BME280;66710;48.868;9.080;2023-03-24T14:50:24;62632.25;;;-147.94;100.00
77574;BME280;66710;48.868;9.080;2023-03-24T14:52:52;62632.25;;;-147.94;100.00
77574;BME280;66710;48.868;9.080;2023-03-24T14:55:19;62632.25;;;-147.94;100.00
77574;BME280;66710;48.868;9.080;2023-03-24T14:57:58;62632.25;;;-147.94;100.00
77574;BME280;66710;48.868;9.080;2023-03-24T15:00:34;62632.25;;;-147.94;100.00
77574;BME280;66710;48.868;9.080;2023-03-24T15:05:53;62632.25;;;-147.94;100.00